Time;durP1;ratioP1;P1;durP2;ratioP2;P2;SDS_P1;SDS_P2;PMS_P1;PMS_P2;Temp;Humidity;BMP_temperature;BMP_pressure;BME280_temperature;BME280_humidity;BME280_pressure;Samples;Min_cycle;Max_cycle;Signal;HPM_P1;HPM_P2
2021/12/23 00:02:33;;;;;;;35.90;19.67;;;-0.60;88.30;;;;;;20918476;28;20566;-65
2021/12/23 00:12:39;;;;;;;37.13;19.50;;;-0.90;87.90;;;;;;20926831;28;20292;-66
2021/12/23 00:33:01;;;;;;;34.57;19.00;;;-0.80;87.40;;;;;;20925074;28;20647;-66
2021/12/23 00:43:03;;;;;;;35.83;19.93;;;-0.70;87.90;;;;;;20924379;28;20253;-65
2021/12/23 00:53:07;;;;;;;41.90;20.13;;;-0.80;87.30;;;;;;20923381;28;20209;-65
2021/12/23 01:03:09;;;;;;;40.63;20.40;;;-0.80;87.40;;;;;;20922345;28;20753;-66
2021/12/23 01:13:13;;;;;;;36.10;19.07;;;-0.70;87.20;;;;;;20921687;28;20212;-66
2021/12/23 01:23:16;;;;;;;42.87;18.73;;;-0.60;87.40;;;;;;20917314;28;20326;-66
2021/12/23 01:33:18;;;;;;;37.10;18.13;;;-0.60;88.10;;;;;;20919370;28;20656;-65
2021/12/23 01:43:20;;;;;;;34.77;19.17;;;-0.40;88.10;;;;;;20919902;28;20573;-65
2021/12/23 01:53:22;;;;;;;37.33;19.80;;;-0.60;86.70;;;;;;20918758;28;20235;-66
2021/12/23 02:03:23;;;;;;;38.27;20.07;;;-0.60;87.40;;;;;;20917961;28;20569;-69
2021/12/23 02:13:25;;;;;;;46.17;19.43;;;-0.70;88.10;;;;;;20917486;28;20725;-67
2021/12/23 02:23:27;;;;;;;34.37;18.67;;;-0.50;87.90;;;;;;20915389;28;20245;-66
2021/12/23 02:33:28;;;;;;;35.97;18.17;;;-0.50;88.40;;;;;;20915553;28;20255;-65
2021/12/23 02:43:30;;;;;;;31.03;17.20;;;-0.40;87.70;;;;;;20914941;28;20232;-67
2021/12/23 02:53:32;;;;;;;35.13;18.23;;;-0.60;86.90;;;;;;20914060;28;20224;-65
2021/12/23 03:03:34;;;;;;;31.43;17.03;;;;;;;;;;20913389;28;20285;-66
2021/12/23 03:13:38;;;;;;;35.23;17.97;;;-0.50;87.30;;;;;;20913513;28;20216;-65
2021/12/23 03:23:40;;;;;;;35.00;18.37;;;-0.60;86.80;;;;;;20909555;28;20253;-65
2021/12/23 03:33:42;;;;;;;36.00;18.37;;;-1.00;86.70;;;;;;20913991;28;20203;-68
2021/12/23 03:43:44;;;;;;;37.40;17.97;;;-1.00;86.90;;;;;;20929431;28;20236;-68
2021/12/23 03:53:45;;;;;;;33.97;17.37;;;-0.90;86.90;;;;;;20928030;28;20258;-65
2021/12/23 04:03:49;;;;;;;32.40;17.00;;;-0.80;86.90;;;;;;20927198;28;20232;-68
2021/12/23 04:13:53;;;;;;;30.67;16.27;;;-0.90;86.50;;;;;;20926795;28;20266;-66
2021/12/23 04:23:54;;;;;;;36.67;18.13;;;-1.10;86.50;;;;;;20925603;28;20764;-66
2021/12/23 04:33:56;;;;;;;29.47;16.60;;;-0.80;87.10;;;;;;20925014;28;20266;-66
2021/12/23 04:43:59;;;;;;;31.10;16.77;;;-0.80;87.50;;;;;;20923603;28;20240;-66
2021/12/23 04:54:00;;;;;;;34.43;16.80;;;-0.80;87.10;;;;;;20923421;28;20204;-65
2021/12/23 05:04:02;;;;;;;38.57;20.63;;;-0.90;86.60;;;;;;20922681;28;20275;-68
2021/12/23 05:14:04;;;;;;;45.80;22.87;;;-0.80;86.90;;;;;;20922308;28;20567;-69
2021/12/23 05:26:17;;;;;;;39.90;20.13;;;-0.70;87.20;;;;;;20915935;28;20579;-66
2021/12/23 05:36:18;;;;;;;34.30;17.57;;;-0.70;86.90;;;;;;20900906;28;20208;-66
2021/12/23 05:46:20;;;;;;;33.43;17.93;;;-1.40;87.10;;;;;;20900593;28;20251;-66
2021/12/23 05:56:22;;;;;;;35.20;18.23;;;-0.70;87.60;;;;;;20899334;28;20209;-64
2021/12/23 06:06:39;;;;;;;34.97;17.43;;;-0.50;88.00;;;;;;21152312;27;20505;-64
2021/12/23 06:16:40;;;;;;;32.57;17.80;;;-0.40;87.70;;;;;;21066844;28;20211;-68
2021/12/23 06:26:42;;;;;;;33.77;18.30;;;-0.40;87.30;;;;;;21065938;28;20261;-65
2021/12/23 06:36:44;;;;;;;32.87;17.83;;;-0.40;87.80;;;;;;21065178;28;20258;-64
2021/12/23 06:46:46;;;;;;;32.67;17.17;;;-0.50;88.00;;;;;;21063972;28;20268;-68
2021/12/23 06:56:49;;;;;;;36.43;17.97;;;-0.40;87.70;;;;;;21061311;28;21008;-65
2021/12/23 07:07:08;;;;;;;36.97;18.67;;;-0.60;88.00;;;;;;20978614;28;20237;-67
2021/12/23 07:17:10;;;;;;;40.77;29.20;;;-0.60;88.60;;;;;;20924702;28;20440;-66
2021/12/23 07:27:12;;;;;;;43.23;22.37;;;-0.20;88.50;;;;;;20852902;28;20251;-69
2021/12/23 07:37:13;;;;;;;39.97;20.97;;;-0.20;89.20;;;;;;20855064;28;20299;-68
2021/12/23 07:47:16;;;;;;;34.40;19.57;;;-0.20;88.30;;;;;;20885841;28;20261;-64
2021/12/23 07:59:32;;;;;;;37.20;20.53;;;-0.10;88.10;;;;;;21152409;27;20555;-60
2021/12/23 08:09:34;;;;;;;45.37;23.03;;;-0.10;88.40;;;;;;21150424;28;20207;-61
2021/12/23 08:19:36;;;;;;;41.90;22.17;;;0.10;89.00;;;;;;21149654;28;20234;-67
2021/12/23 08:29:38;;;;;;;43.30;22.07;;;0.00;88.60;;;;;;21149176;28;20204;-61
2021/12/23 08:39:40;;;;;;;40.90;21.63;;;0.10;89.20;;;;;;21147831;28;20563;-60
2021/12/23 08:49:43;;;;;;;41.87;22.00;;;0.40;89.30;;;;;;21146719;28;20266;-63
2021/12/23 08:59:46;;;;;;;39.43;21.23;;;0.60;89.30;;;;;;21146363;28;20214;-61
2021/12/23 09:09:50;;;;;;;44.73;21.87;;;0.80;88.20;;;;;;21096206;28;20205;-63
2021/12/23 09:19:52;;;;;;;43.03;21.83;;;0.90;88.30;;;;;;21090454;28;20648;-66
2021/12/23 09:39:57;;;;;;;37.83;21.43;;;1.20;88.00;;;;;;21087391;28;20258;-67
2021/12/23 09:50:02;;;;;;;39.43;22.30;;;1.40;87.90;;;;;;21085257;28;20232;-69
2021/12/23 10:00:11;;;;;;;44.50;22.17;;;1.40;88.50;;;;;;21086378;28;20257;-70
2021/12/23 10:10:42;;;;;;;41.80;22.97;;;1.50;88.20;;;;;;21085031;28;20240;-64
2021/12/23 10:31:06;;;;;;;41.47;22.87;;;1.70;87.70;;;;;;21083621;28;20236;-67
2021/12/23 10:41:39;;;;;;;42.00;22.87;;;1.80;88.20;;;;;;21083656;28;20229;-62
2021/12/23 10:52:00;;;;;;;45.30;23.90;;;2.00;88.30;;;;;;21077915;28;20776;-67
2021/12/23 11:02:29;;;;;;;42.53;23.30;;;2.10;88.50;;;;;;21079381;28;20727;-64
2021/12/23 11:43:49;;;;;;;42.47;23.13;;;2.30;87.90;;;;;;21078049;28;20209;-65
2021/12/23 11:53:50;;;;;;;44.67;24.03;;;2.40;88.00;;;;;;21077885;28;20234;-67
2021/12/23 12:03:57;;;;;;;42.07;23.40;;;2.50;88.70;;;;;;21077819;28;20258;-66
2021/12/23 12:13:59;;;;;;;47.00;23.20;;;2.70;88.70;;;;;;21076231;28;20245;-66
2021/12/23 12:24:10;;;;;;;42.13;22.40;;;2.80;88.50;;;;;;21076895;28;20206;-62
2021/12/23 12:34:12;;;;;;;39.87;22.93;;;3.00;87.90;;;;;;21076504;28;20229;-62
2021/12/23 12:44:27;;;;;;;41.43;22.93;;;3.00;88.60;;;;;;21088708;28;20281;-62
2021/12/23 12:54:31;;;;;;;48.03;24.60;;;3.10;87.90;;;;;;21091319;28;20785;-62
2021/12/23 13:04:43;;;;;;;43.90;23.50;;;3.00;87.60;;;;;;21090641;28;20608;-61
2021/12/23 13:15:15;;;;;;;46.13;24.80;;;2.90;88.60;;;;;;21089714;28;20868;-62
2021/12/23 13:25:14;;;;;;;48.03;26.10;;;3.00;88.60;;;;;;21171212;28;20202;-62
2021/12/23 13:35:16;;;;;;;43.40;25.03;;;2.90;88.70;;;;;;21172361;28;20700;-62
2021/12/23 13:45:19;;;;;;;50.23;25.47;;;3.10;89.40;;;;;;21171386;28;20726;-61
2021/12/23 13:55:27;;;;;;;51.50;27.93;;;3.10;90.00;;;;;;21171195;28;20244;-64
2021/12/23 14:05:28;;;;;;;50.37;28.27;;;3.20;89.50;;;;;;21170147;28;20198;-65
2021/12/23 14:15:34;;;;;;;48.60;26.93;;;3.40;89.60;;;;;;21169658;28;20279;-66
2021/12/23 14:25:36;;;;;;;46.50;25.93;;;3.40;89.50;;;;;;21168991;28;20255;-67
2021/12/23 14:35:38;;;;;;;45.60;24.73;;;3.40;89.50;;;;;;21167446;28;20237;-63
2021/12/23 14:45:42;;;;;;;49.73;26.00;;;3.40;90.10;;;;;;21167006;28;20586;-61
2021/12/23 14:55:53;;;;;;;55.47;27.80;;;3.50;90.10;;;;;;21166342;28;20237;-62
2021/12/23 15:06:05;;;;;;;49.87;26.17;;;3.40;90.30;;;;;;21165150;28;20659;-65
2021/12/23 15:16:29;;;;;;;49.77;27.03;;;3.50;90.40;;;;;;21164636;28;20581;-65
2021/12/23 15:26:33;;;;;;;47.07;25.47;;;3.60;90.40;;;;;;21164800;28;20656;-65
2021/12/23 15:36:38;;;;;;;51.33;26.87;;;3.50;90.30;;;;;;21163597;28;20236;-64
2021/12/23 15:46:40;;;;;;;54.50;26.67;;;3.50;90.60;;;;;;21163013;28;20205;-61
2021/12/23 15:56:42;;;;;;;45.50;25.63;;;3.50;90.70;;;;;;21162886;28;20245;-62
2021/12/23 16:17:06;;;;;;;52.87;25.73;;;3.60;90.60;;;;;;21171659;28;20259;-61
2021/12/23 16:27:10;;;;;;;60.63;28.43;;;3.60;90.90;;;;;;21179108;28;20206;-63
2021/12/23 16:37:12;;;;;;;50.90;26.13;;;3.60;90.90;;;;;;21177587;28;20237;-64
2021/12/23 16:47:14;;;;;;;51.53;28.70;;;3.50;91.20;;;;;;21176978;28;20210;-66
2021/12/23 16:57:34;;;;;;;52.50;29.47;;;3.30;91.60;;;;;;21176500;28;20242;-62
2021/12/23 17:07:35;;;;;;;63.47;30.57;;;3.30;91.70;;;;;;21175366;28;20201;-63
2021/12/23 17:17:38;;;;;;;54.70;30.30;;;3.30;91.90;;;;;;21174403;28;20283;-61
2021/12/23 17:27:40;;;;;;;57.83;30.77;;;3.10;92.00;;;;;;21173618;28;20208;-61
2021/12/23 17:37:41;;;;;;;57.63;29.27;;;3.10;92.00;;;;;;21172753;28;20233;-61
2021/12/23 17:47:44;;;;;;;51.77;27.60;;;3.10;92.10;;;;;;21154338;28;20202;-63
2021/12/23 17:57:45;;;;;;;58.87;28.37;;;3.10;92.40;;;;;;21171693;28;20241;-67
2021/12/23 18:07:47;;;;;;;48.17;27.83;;;3.10;92.30;;;;;;21170628;28;20676;-62
2021/12/23 18:17:49;;;;;;;52.13;28.13;;;3.10;92.40;;;;;;21169612;28;20225;-65
2021/12/23 18:27:51;;;;;;;48.67;26.87;;;3.20;92.40;;;;;;21169285;28;20205;-63
2021/12/23 18:37:56;;;;;;;55.70;27.53;;;3.40;92.50;;;;;;21167394;28;20707;-60
2021/12/23 18:47:59;;;;;;;47.27;26.57;;;3.40;92.30;;;;;;21167677;28;20210;-62
2021/12/23 18:58:01;;;;;;;47.97;27.40;;;3.40;92.30;;;;;;21166934;28;20242;-63
2021/12/23 19:08:05;;;;;;;49.87;27.80;;;3.40;92.50;;;;;;21166114;28;20204;-63
2021/12/23 19:18:09;;;;;;;51.37;28.93;;;3.30;92.40;;;;;;21165526;28;20645;-61
2021/12/23 19:28:11;;;;;;;49.63;27.70;;;3.40;92.50;;;;;;21165468;28;20210;-62
2021/12/23 19:38:12;;;;;;;51.03;28.43;;;3.40;92.50;;;;;;21164016;28;20289;-62
2021/12/23 19:48:15;;;;;;;50.97;29.13;;;3.40;92.80;;;;;;21163385;28;20198;-63
2021/12/23 19:58:17;;;;;;;49.40;27.67;;;3.50;92.90;;;;;;21163222;28;20697;-67
2021/12/23 20:08:18;;;;;;;54.07;29.13;;;3.70;92.60;;;;;;21162558;28;20198;-68
2021/12/23 20:18:20;;;;;;;54.17;29.73;;;3.80;92.60;;;;;;21162200;28;20662;-63
2021/12/23 20:28:22;;;;;;;51.40;28.50;;;3.80;92.90;;;;;;21161550;28;20204;-62
2021/12/23 20:38:24;;;;;;;50.17;28.37;;;3.90;93.00;;;;;;21161306;28;20687;-63
2021/12/23 20:48:26;;;;;;;53.67;30.80;;;4.00;93.00;;;;;;21161064;28;20610;-62
2021/12/23 20:58:32;;;;;;;58.17;33.17;;;4.00;93.20;;;;;;21162438;28;20267;-64
2021/12/23 21:08:33;;;;;;;54.40;39.47;;;4.00;93.50;;;;;;21169770;28;20430;-67
2021/12/23 21:18:36;;;;;;;55.40;30.03;;;4.70;94.50;;;;;;21175140;28;20230;-62
2021/12/23 21:28:38;;;;;;;50.67;27.00;;;4.30;94.80;;;;;;21174360;28;20720;-63
2021/12/23 21:38:39;;;;;;;49.87;26.83;;;4.40;95.20;;;;;;21173240;28;20226;-62
2021/12/23 21:48:41;;;;;;;47.27;28.37;;;4.50;95.30;;;;;;21172390;28;20239;-63
2021/12/23 21:58:43;;;;;;;46.80;27.80;;;4.60;95.60;;;;;;21171707;28;20291;-63
2021/12/23 22:08:45;;;;;;;46.23;26.57;;;4.70;95.70;;;;;;21170722;28;20210;-62
2021/12/23 22:18:50;;;;;;;48.70;27.03;;;4.70;96.00;;;;;;21170226;28;20230;-62
2021/12/23 22:28:52;;;;;;;41.67;24.43;;;4.80;96.10;;;;;;21151623;28;20202;-62
2021/12/23 22:38:53;;;;;;;42.20;25.23;;;4.80;96.40;;;;;;21168891;28;20284;-67
2021/12/23 22:48:55;;;;;;;40.07;23.17;;;4.90;96.90;;;;;;21167604;28;20231;-62
2021/12/23 22:58:58;;;;;;;40.80;22.47;;;5.00;96.70;;;;;;21166650;28;20310;-65
2021/12/23 23:08:59;;;;;;;18.03;11.00;;;5.10;97.00;;;;;;21166449;28;20546;-67
2021/12/23 23:19:04;;;;;;;14.60;10.37;;;5.50;97.80;;;;;;21165115;28;20597;-67
2021/12/23 23:39:51;;;;;;;11.23;7.67;;;6.70;99.80;;;;;;21164272;28;20236;-63
2021/12/23 23:49:53;;;;;;;14.67;7.87;;;7.20;99.90;;;;;;21163424;28;20254;-62
2021/12/23 23:59:55;;;;;;;19.00;7.80;;;7.60;99.90;;;;;;21162837;28;20714;-62
